sensor_id;sensor_type;location;lat;lon;timestamp;pressure;altitude;pressure_sealevel;temperature;humidity
54882;BME280;40775;51.448;4.742;2023-05-01T00:01:51;101635.38;;;13.85;100.00
54882;BME280;40775;51.448;4.742;2023-05-01T00:04:18;101630.94;;;13.82;100.00
54882;BME280;40775;51.448;4.742;2023-05-01T00:06:45;101630.06;;;13.83;100.00
54882;BME280;40775;51.448;4.742;2023-05-01T00:09:12;101635.34;;;13.83;100.00
54882;BME280;40775;51.448;4.742;2023-05-01T00:11:39;101623.91;;;13.83;100.00
54882;BME280;40775;51.448;4.742;2023-05-01T00:14:06;101628.22;;;13.79;100.00
54882;BME280;40775;51.448;4.742;2023-05-01T00:16:34;101615.91;;;13.78;100.00
54882;BME280;40775;51.448;4.742;2023-05-01T00:19:02;101622.97;;;13.79;100.00
54882;BME280;40775;51.448;4.742;2023-05-01T00:21:30;101616.72;;;13.76;100.00
54882;BME280;40775;51.448;4.742;2023-05-01T00:23:57;101618.50;;;13.77;100.00
54882;BME280;40775;51.448;4.742;2023-05-01T00:26:24;101612.28;;;13.73;100.00
54882;BME280;40775;51.448;4.742;2023-05-01T00:28:56;101606.19;;;13.77;100.00
54882;BME280;40775;51.448;4.742;2023-05-01T00:31:24;101607.00;;;13.73;100.00
54882;BME280;40775;51.448;4.742;2023-05-01T00:33:51;101603.50;;;13.74;100.00
54882;BME280;40775;51.448;4.742;2023-05-01T00:36:19;101594.66;;;13.71;100.00
54882;BME280;40775;51.448;4.742;2023-05-01T00:38:46;101597.22;;;13.69;100.00
54882;BME280;40775;51.448;4.742;2023-05-01T00:41:13;101597.28;;;13.71;100.00
54882;BME280;40775;51.448;4.742;2023-05-01T00:43:40;101591.03;;;13.67;100.00
54882;BME280;40775;51.448;4.742;2023-05-01T00:46:08;101585.88;;;13.72;100.00
54882;BME280;40775;51.448;4.742;2023-05-01T00:48:36;101584.81;;;13.64;100.00
54882;BME280;40775;51.448;4.742;2023-05-01T00:51:07;101583.91;;;13.63;100.00
54882;BME280;40775;51.448;4.742;2023-05-01T00:53:34;101576.84;;;13.62;100.00
54882;BME280;40775;51.448;4.742;2023-05-01T00:56:02;101581.88;;;13.48;100.00
54882;BME280;40775;51.448;4.742;2023-05-01T00:58:30;101575.56;;;13.42;100.00
54882;BME280;40775;51.448;4.742;2023-05-01T01:00:57;101568.47;;;13.39;100.00
54882;BME280;40775;51.448;4.742;2023-05-01T01:03:24;101575.69;;;13.46;100.00
54882;BME280;40775;51.448;4.742;2023-05-01T01:12:14;101555.41;;;13.44;100.00
54882;BME280;40775;51.448;4.742;2023-05-01T01:14:56;101553.47;;;13.35;100.00
54882;BME280;40775;51.448;4.742;2023-05-01T01:17:42;101543.75;;;13.33;100.00
54882;BME280;40775;51.448;4.742;2023-05-01T01:35:19;101531.72;;;13.47;100.00
54882;BME280;40775;51.448;4.742;2023-05-01T01:38:08;101529.81;;;13.40;100.00
54882;BME280;40775;51.448;4.742;2023-05-01T01:41:04;101524.63;;;13.43;100.00
54882;BME280;40775;51.448;4.742;2023-05-01T01:43:39;101515.03;;;13.46;100.00
54882;BME280;40775;51.448;4.742;2023-05-01T01:46:09;101516.78;;;13.46;100.00
54882;BME280;40775;51.448;4.742;2023-05-01T01:48:41;101497.38;;;13.44;100.00
54882;BME280;40775;51.448;4.742;2023-05-01T01:51:16;101498.28;;;13.44;100.00
54882;BME280;40775;51.448;4.742;2023-05-01T01:53:50;101500.75;;;13.37;100.00
54882;BME280;40775;51.448;4.742;2023-05-01T01:56:20;101496.25;;;13.31;100.00
54882;BME280;40775;51.448;4.742;2023-05-01T01:58:50;101505.72;;;13.21;100.00
54882;BME280;40775;51.448;4.742;2023-05-01T02:01:19;101502.19;;;13.19;100.00
54882;BME280;40775;51.448;4.742;2023-05-01T02:03:49;101501.31;;;13.20;100.00
54882;BME280;40775;51.448;4.742;2023-05-01T02:06:17;101499.72;;;13.28;100.00
54882;BME280;40775;51.448;4.742;2023-05-01T02:08:46;101499.75;;;13.30;100.00
54882;BME280;40775;51.448;4.742;2023-05-01T02:11:15;101486.53;;;13.28;100.00
54882;BME280;40775;51.448;4.742;2023-05-01T02:13:45;101489.97;;;13.24;100.00
54882;BME280;40775;51.448;4.742;2023-05-01T02:16:14;101484.63;;;13.21;100.00
54882;BME280;40775;51.448;4.742;2023-05-01T02:18:43;101486.41;;;13.22;100.00
54882;BME280;40775;51.448;4.742;2023-05-01T02:21:12;101487.28;;;13.21;100.00
54882;BME280;40775;51.448;4.742;2023-05-01T02:23:40;101471.56;;;13.27;100.00
54882;BME280;40775;51.448;4.742;2023-05-01T02:26:13;101469.75;;;13.25;100.00
54882;BME280;40775;51.448;4.742;2023-05-01T02:28:42;101469.91;;;13.33;100.00
54882;BME280;40775;51.448;4.742;2023-05-01T02:31:10;101478.69;;;13.33;100.00
54882;BME280;40775;51.448;4.742;2023-05-01T02:33:37;101469.91;;;13.33;100.00
54882;BME280;40775;51.448;4.742;2023-05-01T02:36:05;101468.97;;;13.29;100.00
54882;BME280;40775;51.448;4.742;2023-05-01T02:38:32;101465.47;;;13.30;100.00
54882;BME280;40775;51.448;4.742;2023-05-01T02:41:00;101464.63;;;13.33;100.00
54882;BME280;40775;51.448;4.742;2023-05-01T02:43:29;101461.94;;;13.29;100.00
54882;BME280;40775;51.448;4.742;2023-05-01T02:45:58;101465.47;;;13.30;100.00
54882;BME280;40775;51.448;4.742;2023-05-01T02:48:28;101460.16;;;13.28;100.00
54882;BME280;40775;51.448;4.742;2023-05-01T02:50:56;101453.13;;;13.27;100.00
54882;BME280;40775;51.448;4.742;2023-05-01T02:53:24;101448.72;;;13.28;100.00
54882;BME280;40775;51.448;4.742;2023-05-01T02:55:51;101450.38;;;13.23;100.00
54882;BME280;40775;51.448;4.742;2023-05-01T02:58:19;101446.00;;;13.23;100.00
54882;BME280;40775;51.448;4.742;2023-05-01T03:00:48;101440.78;;;13.26;100.00
54882;BME280;40775;51.448;4.742;2023-05-01T03:03:16;101441.59;;;13.22;100.00
54882;BME280;40775;51.448;4.742;2023-05-01T03:05:43;101433.69;;;13.22;100.00
54882;BME280;40775;51.448;4.742;2023-05-01T03:08:10;101435.44;;;13.22;100.00
54882;BME280;40775;51.448;4.742;2023-05-01T03:10:41;101424.84;;;13.20;100.00
54882;BME280;40775;51.448;4.742;2023-05-01T03:13:09;101426.59;;;13.18;100.00
54882;BME280;40775;51.448;4.742;2023-05-01T03:15:37;101435.34;;;13.17;100.00
54882;BME280;40775;51.448;4.742;2023-05-01T03:18:05;101428.19;;;13.13;100.00
54882;BME280;40775;51.448;4.742;2023-05-01T03:20:33;101433.50;;;13.15;100.00
54882;BME280;40775;51.448;4.742;2023-05-01T03:23:00;101429.97;;;13.14;100.00
54882;BME280;40775;51.448;4.742;2023-05-01T03:25:27;101421.13;;;13.12;100.00
54882;BME280;40775;51.448;4.742;2023-05-01T03:27:54;101421.06;;;13.09;100.00
54882;BME280;40775;51.448;4.742;2023-05-01T03:30:21;101425.44;;;13.07;100.00
54882;BME280;40775;51.448;4.742;2023-05-01T03:32:48;101417.53;;;13.07;100.00
54882;BME280;40775;51.448;4.742;2023-05-01T03:35:16;101416.66;;;13.08;100.00
54882;BME280;40775;51.448;4.742;2023-05-01T03:37:43;101409.63;;;13.07;100.00
54882;BME280;40775;51.448;4.742;2023-05-01T03:40:10;101414.88;;;13.07;100.00
54882;BME280;40775;51.448;4.742;2023-05-01T03:42:39;101411.31;;;13.04;100.00
54882;BME280;40775;51.448;4.742;2023-05-01T03:45:07;101407.81;;;13.05;100.00
54882;BME280;40775;51.448;4.742;2023-05-01T03:47:34;101414.81;;;13.03;100.00
54882;BME280;40775;51.448;4.742;2023-05-01T03:50:02;101406.84;;;12.99;100.00
54882;BME280;40775;51.448;4.742;2023-05-01T03:52:29;101408.66;;;13.02;100.00
54882;BME280;40775;51.448;4.742;2023-05-01T03:54:56;101402.44;;;12.98;100.00
54882;BME280;40775;51.448;4.742;2023-05-01T03:57:23;101404.22;;;12.99;100.00
54882;BME280;40775;51.448;4.742;2023-05-01T03:59:50;101397.22;;;13.02;100.00
54882;BME280;40775;51.448;4.742;2023-05-01T04:02:17;101397.19;;;13.00;100.00
54882;BME280;40775;51.448;4.742;2023-05-01T04:04:45;101399.81;;;13.00;100.00
54882;BME280;40775;51.448;4.742;2023-05-01T04:07:12;101403.31;;;12.99;100.00
54882;BME280;40775;51.448;4.742;2023-05-01T04:09:39;101396.22;;;12.95;100.00
54882;BME280;40775;51.448;4.742;2023-05-01T04:12:06;101396.25;;;12.96;100.00
54882;BME280;40775;51.448;4.742;2023-05-01T04:14:33;101391.81;;;12.94;100.00
54882;BME280;40775;51.448;4.742;2023-05-01T04:17:01;101392.53;;;12.87;100.00
54882;BME280;40775;51.448;4.742;2023-05-01T04:19:28;101388.88;;;12.80;100.00
54882;BME280;40775;51.448;4.742;2023-05-01T04:21:55;101395.88;;;12.78;100.00
54882;BME280;40775;51.448;4.742;2023-05-01T04:24:22;101383.66;;;12.82;100.00
54882;BME280;40775;51.448;4.742;2023-05-01T04:26:49;101389.81;;;12.82;100.00
54882;BME280;40775;51.448;4.742;2023-05-01T04:29:16;101387.13;;;12.81;100.00
54882;BME280;40775;51.448;4.742;2023-05-01T04:31:43;101388.78;;;12.76;100.00
54882;BME280;40775;51.448;4.742;2023-05-01T04:34:11;101383.53;;;12.76;100.00
54882;BME280;40775;51.448;4.742;2023-05-01T04:36:38;101385.38;;;12.81;100.00
54882;BME280;40775;51.448;4.742;2023-05-01T04:39:05;101379.22;;;12.79;100.00
54882;BME280;40775;51.448;4.742;2023-05-01T04:41:32;101380.03;;;12.77;100.00
54882;BME280;40775;51.448;4.742;2023-05-01T04:43:59;101384.38;;;12.75;100.00
54882;BME280;40775;51.448;4.742;2023-05-01T04:46:26;101376.53;;;12.78;100.00
54882;BME280;40775;51.448;4.742;2023-05-01T04:48:53;101394.97;;;12.76;100.00
54882;BME280;40775;51.448;4.742;2023-05-01T04:51:20;101382.63;;;12.75;100.00
54882;BME280;40775;51.448;4.742;2023-05-01T04:53:48;101388.78;;;12.74;100.00
54882;BME280;40775;51.448;4.742;2023-05-01T04:56:15;101387.03;;;12.75;100.00
54882;BME280;40775;51.448;4.742;2023-05-01T04:58:42;101387.84;;;12.72;100.00
54882;BME280;40775;51.448;4.742;2023-05-01T05:01:09;101389.66;;;12.75;100.00
54882;BME280;40775;51.448;4.742;2023-05-01T05:03:36;101381.75;;;12.75;100.00
54882;BME280;40775;51.448;4.742;2023-05-01T05:06:04;101380.91;;;12.76;100.00
54882;BME280;40775;51.448;4.742;2023-05-01T05:08:31;101380.94;;;12.79;100.00
54882;BME280;40775;51.448;4.742;2023-05-01T05:10:59;101389.72;;;12.78;100.00
54882;BME280;40775;51.448;4.742;2023-05-01T05:13:27;101388.84;;;12.79;100.00
54882;BME280;40775;51.448;4.742;2023-05-01T05:15:54;101383.66;;;12.82;100.00
54882;BME280;40775;51.448;4.742;2023-05-01T05:18:21;101382.69;;;12.78;100.00
54882;BME280;40775;51.448;4.742;2023-05-01T05:20:48;101382.78;;;12.83;100.00
54882;BME280;40775;51.448;4.742;2023-05-01T05:23:15;101381.94;;;12.85;100.00
54882;BME280;40775;51.448;4.742;2023-05-01T05:25:42;101391.53;;;12.82;100.00
54882;BME280;40775;51.448;4.742;2023-05-01T05:28:09;101392.47;;;12.84;100.00
54882;BME280;40775;51.448;4.742;2023-05-01T05:30:36;101394.22;;;12.83;100.00
54882;BME280;40775;51.448;4.742;2023-05-01T05:33:07;101399.41;;;12.79;100.00
54882;BME280;40775;51.448;4.742;2023-05-01T05:35:34;101397.63;;;12.78;100.00
54882;BME280;40775;51.448;4.742;2023-05-01T05:38:02;101394.25;;;12.85;100.00
54882;BME280;40775;51.448;4.742;2023-05-01T05:40:29;101393.34;;;12.84;100.00
54882;BME280;40775;51.448;4.742;2023-05-01T05:42:56;101390.69;;;12.83;100.00
54882;BME280;40775;51.448;4.742;2023-05-01T05:45:24;101405.31;;;13.12;100.00
54882;BME280;40775;51.448;4.742;2023-05-01T05:47:51;101406.91;;;14.63;100.00
54882;BME280;40775;51.448;4.742;2023-05-01T05:50:18;101390.94;;;15.34;100.00
54882;BME280;40775;51.448;4.742;2023-05-01T05:52:45;101388.75;;;15.81;100.00
54882;BME280;40775;51.448;4.742;2023-05-01T05:55:12;101382.78;;;16.14;100.00
54882;BME280;40775;51.448;4.742;2023-05-01T05:57:39;101393.53;;;16.38;100.00
54882;BME280;40775;51.448;4.742;2023-05-01T06:00:07;101385.69;;;16.58;100.00
54882;BME280;40775;51.448;4.742;2023-05-01T06:02:36;101376.06;;;16.74;100.00
54882;BME280;40775;51.448;4.742;2023-05-01T06:05:03;101378.75;;;16.89;100.00
54882;BME280;40775;51.448;4.742;2023-05-01T06:07:31;101379.69;;;17.01;100.00
54882;BME280;40775;51.448;4.742;2023-05-01T06:09:58;101371.75;;;17.11;100.00
54882;BME280;40775;51.448;4.742;2023-05-01T06:12:30;101376.16;;;17.20;100.00
54882;BME280;40775;51.448;4.742;2023-05-01T06:14:58;101369.13;;;17.28;100.00
54882;BME280;40775;51.448;4.742;2023-05-01T06:17:25;101373.56;;;17.35;100.00
54882;BME280;40775;51.448;4.742;2023-05-01T06:19:52;101376.22;;;17.40;100.00
54882;BME280;40775;51.448;4.742;2023-05-01T06:22:20;101371.78;;;17.45;100.00
54882;BME280;40775;51.448;4.742;2023-05-01T06:24:47;101376.19;;;17.50;100.00
54882;BME280;40775;51.448;4.742;2023-05-01T06:27:14;101378.00;;;17.54;100.00
54882;BME280;40775;51.448;4.742;2023-05-01T06:29:41;101378.88;;;17.56;100.00
54882;BME280;40775;51.448;4.742;2023-05-01T06:32:08;101389.50;;;17.61;100.00
54882;BME280;40775;51.448;4.742;2023-05-01T06:34:35;101384.19;;;17.64;100.00
54882;BME280;40775;51.448;4.742;2023-05-01T06:37:02;101383.28;;;17.67;100.00
54882;BME280;40775;51.448;4.742;2023-05-01T06:39:30;101388.63;;;17.70;100.00
54882;BME280;40775;51.448;4.742;2023-05-01T06:41:57;101376.25;;;17.72;100.00
54882;BME280;40775;51.448;4.742;2023-05-01T06:44:24;101378.91;;;17.73;100.00
54882;BME280;40775;51.448;4.742;2023-05-01T06:46:51;101379.78;;;17.75;100.00
54882;BME280;40775;51.448;4.742;2023-05-01T06:49:18;101372.69;;;17.77;100.00
54882;BME280;40775;51.448;4.742;2023-05-01T06:51:46;101384.19;;;17.78;100.00
54882;BME280;40775;51.448;4.742;2023-05-01T06:54:13;101385.97;;;17.80;100.00
54882;BME280;40775;51.448;4.742;2023-05-01T06:56:40;101378.00;;;17.80;100.00
54882;BME280;40775;51.448;4.742;2023-05-01T06:59:07;101377.13;;;17.83;100.00
54882;BME280;40775;51.448;4.742;2023-05-01T07:01:34;101370.06;;;17.83;100.00
54882;BME280;40775;51.448;4.742;2023-05-01T07:04:02;101369.16;;;17.86;100.00
54882;BME280;40775;51.448;4.742;2023-05-01T07:06:29;101376.25;;;17.87;100.00
54882;BME280;40775;51.448;4.742;2023-05-01T07:08:58;101373.59;;;17.87;100.00
54882;BME280;40775;51.448;4.742;2023-05-01T07:11:25;101373.59;;;17.87;100.00
54882;BME280;40775;51.448;4.742;2023-05-01T07:13:53;101373.59;;;17.88;100.00
54882;BME280;40775;51.448;4.742;2023-05-01T07:16:20;101379.78;;;17.89;100.00
54882;BME280;40775;51.448;4.742;2023-05-01T07:18:47;101381.56;;;17.90;100.00
54882;BME280;40775;51.448;4.742;2023-05-01T07:21:14;101371.81;;;17.90;100.00
54882;BME280;40775;51.448;4.742;2023-05-01T07:23:41;101370.03;;;17.91;100.00
54882;BME280;40775;51.448;4.742;2023-05-01T07:26:08;101375.34;;;17.92;100.00
54882;BME280;40775;51.448;4.742;2023-05-01T07:28:35;101373.56;;;17.91;100.00
54882;BME280;40775;51.448;4.742;2023-05-01T07:31:02;101374.47;;;17.92;100.00
54882;BME280;40775;51.448;4.742;2023-05-01T07:33:30;101384.19;;;17.93;100.00
54882;BME280;40775;51.448;4.742;2023-05-01T07:35:57;101386.84;;;17.93;100.00
54882;BME280;40775;51.448;4.742;2023-05-01T07:38:24;101382.44;;;17.94;100.00
54882;BME280;40775;51.448;4.742;2023-05-01T07:40:52;101387.75;;;17.94;100.00
54882;BME280;40775;51.448;4.742;2023-05-01T07:43:19;101387.75;;;17.95;100.00
54882;BME280;40775;51.448;4.742;2023-05-01T07:45:58;101383.31;;;17.94;100.00
54882;BME280;40775;51.448;4.742;2023-05-01T07:48:27;101389.50;;;17.95;100.00
54882;BME280;40775;51.448;4.742;2023-05-01T07:50:54;101390.41;;;17.95;100.00
54882;BME280;40775;51.448;4.742;2023-05-01T07:53:22;101390.41;;;17.95;100.00
54882;BME280;40775;51.448;4.742;2023-05-01T07:55:49;101384.19;;;17.95;100.00
54882;BME280;40775;51.448;4.742;2023-05-01T07:58:17;101383.31;;;17.94;100.00
54882;BME280;40775;51.448;4.742;2023-05-01T08:00:44;101381.53;;;17.95;100.00
54882;BME280;40775;51.448;4.742;2023-05-01T08:03:12;101383.31;;;17.96;100.00
54882;BME280;40775;51.448;4.742;2023-05-01T08:05:42;101387.72;;;17.97;100.00
54882;BME280;40775;51.448;4.742;2023-05-01T08:08:09;101387.72;;;17.97;100.00
54882;BME280;40775;51.448;4.742;2023-05-01T08:10:36;101387.75;;;17.95;100.00
54882;BME280;40775;51.448;4.742;2023-05-01T08:13:03;101385.97;;;17.96;100.00
54882;BME280;40775;51.448;4.742;2023-05-01T08:15:30;101385.97;;;17.96;100.00
54882;BME280;40775;51.448;4.742;2023-05-01T08:17:57;101386.84;;;17.96;100.00
54882;BME280;40775;51.448;4.742;2023-05-01T08:20:24;101385.97;;;17.96;100.00
54882;BME280;40775;51.448;4.742;2023-05-01T08:22:51;101385.09;;;17.94;100.00
54882;BME280;40775;51.448;4.742;2023-05-01T08:25:18;101385.09;;;17.95;100.00
54882;BME280;40775;51.448;4.742;2023-05-01T08:27:46;101378.88;;;17.95;100.00
54882;BME280;40775;51.448;4.742;2023-05-01T08:30:13;101379.78;;;17.95;100.00
54882;BME280;40775;51.448;4.742;2023-05-01T08:32:40;101385.09;;;17.92;100.00
54882;BME280;40775;51.448;4.742;2023-05-01T08:35:07;101382.44;;;17.94;100.00
54882;BME280;40775;51.448;4.742;2023-05-01T08:37:35;101387.75;;;17.95;100.00
54882;BME280;40775;51.448;4.742;2023-05-01T08:40:03;101377.13;;;17.95;100.00
54882;BME280;40775;51.448;4.742;2023-05-01T08:42:35;101381.53;;;17.95;100.00
54882;BME280;40775;51.448;4.742;2023-05-01T08:45:09;101377.13;;;17.92;100.00
54882;BME280;40775;51.448;4.742;2023-05-01T08:47:38;101380.66;;;17.89;100.00
54882;BME280;40775;51.448;4.742;2023-05-01T08:50:13;101386.84;;;17.63;100.00
54882;BME280;40775;51.448;4.742;2023-05-01T08:52:43;101385.97;;;17.59;100.00
54882;BME280;40775;51.448;4.742;2023-05-01T08:55:13;101387.75;;;17.69;100.00
54882;BME280;40775;51.448;4.742;2023-05-01T08:57:45;101389.53;;;17.69;100.00
54882;BME280;40775;51.448;4.742;2023-05-01T09:00:20;101393.00;;;17.49;100.00
54882;BME280;40775;51.448;4.742;2023-05-01T09:02:48;101392.13;;;17.52;100.00
54882;BME280;40775;51.448;4.742;2023-05-01T09:05:18;101393.06;;;17.69;100.00
54882;BME280;40775;51.448;4.742;2023-05-01T09:07:46;101390.38;;;17.60;100.00
54882;BME280;40775;51.448;4.742;2023-05-01T09:10:16;101391.25;;;17.64;100.00
54882;BME280;40775;51.448;4.742;2023-05-01T09:12:48;101392.19;;;17.67;100.00
54882;BME280;40775;51.448;4.742;2023-05-01T09:15:17;101397.47;;;17.59;100.00
54882;BME280;40775;51.448;4.742;2023-05-01T09:17:44;101395.69;;;17.65;100.00
54882;BME280;40775;51.448;4.742;2023-05-01T09:20:11;101390.41;;;17.69;100.00
54882;BME280;40775;51.448;4.742;2023-05-01T09:22:38;101390.38;;;17.80;100.00
54882;BME280;40775;51.448;4.742;2023-05-01T09:25:06;101399.28;;;17.85;100.00
54882;BME280;40775;51.448;4.742;2023-05-01T09:27:33;101405.47;;;17.91;100.00
54882;BME280;40775;51.448;4.742;2023-05-01T09:30:01;101394.84;;;17.90;100.00
54882;BME280;40775;51.448;4.742;2023-05-01T09:32:29;101403.69;;;17.92;100.00
54882;BME280;40775;51.448;4.742;2023-05-01T09:35:17;101401.91;;;17.94;100.00
54882;BME280;40775;51.448;4.742;2023-05-01T09:37:46;101406.34;;;17.95;100.00
54882;BME280;40775;51.448;4.742;2023-05-01T09:40:15;101404.56;;;17.99;100.00
54882;BME280;40775;51.448;4.742;2023-05-01T09:42:48;101409.84;;;18.06;100.00
54882;BME280;40775;51.448;4.742;2023-05-01T09:45:16;101406.31;;;18.13;100.00
54882;BME280;40775;51.448;4.742;2023-05-01T09:47:45;101401.03;;;18.09;100.00
54882;BME280;40775;51.448;4.742;2023-05-01T09:50:32;101417.84;;;18.14;100.00
54882;BME280;40775;51.448;4.742;2023-05-01T09:53:00;101409.84;;;18.17;100.00
54882;BME280;40775;51.448;4.742;2023-05-01T09:55:28;101405.41;;;18.07;100.00
54882;BME280;40775;51.448;4.742;2023-05-01T09:57:55;101415.19;;;18.09;100.00
54882;BME280;40775;51.448;4.742;2023-05-01T10:00:24;101419.63;;;18.09;100.00
54882;BME280;40775;51.448;4.742;2023-05-01T10:02:51;101425.78;;;18.26;100.00
54882;BME280;40775;51.448;4.742;2023-05-01T10:05:19;101426.63;;;18.33;100.00
54882;BME280;40775;51.448;4.742;2023-05-01T10:10:23;101424.94;;;17.94;100.00
54882;BME280;40775;51.448;4.742;2023-05-01T10:12:50;101432.00;;;18.13;100.00
54882;BME280;40775;51.448;4.742;2023-05-01T10:15:17;101432.88;;;18.19;100.00
54882;BME280;40775;51.448;4.742;2023-05-01T10:17:52;101433.75;;;18.21;100.00
54882;BME280;40775;51.448;4.742;2023-05-01T10:20:20;101437.31;;;18.20;100.00
54882;BME280;40775;51.448;4.742;2023-05-01T10:22:47;101441.72;;;18.25;100.00
54882;BME280;40775;51.448;4.742;2023-05-01T10:25:15;101447.03;;;18.25;100.00
54882;BME280;40775;51.448;4.742;2023-05-01T10:27:43;101443.47;;;18.29;100.00
54882;BME280;40775;51.448;4.742;2023-05-01T10:30:10;101445.28;;;18.20;100.00
54882;BME280;40775;51.448;4.742;2023-05-01T10:32:38;101447.94;;;18.25;100.00
54882;BME280;40775;51.448;4.742;2023-05-01T10:35:11;101450.59;;;18.23;100.00
54882;BME280;40775;51.448;4.742;2023-05-01T10:43:24;101457.69;;;18.21;100.00
54882;BME280;40775;51.448;4.742;2023-05-01T10:51:39;101454.13;;;18.29;100.00
54882;BME280;40775;51.448;4.742;2023-05-01T10:59:05;101463.88;;;18.17;100.00
54882;BME280;40775;51.448;4.742;2023-05-01T11:01:42;101459.47;;;18.16;100.00
54882;BME280;40775;51.448;4.742;2023-05-01T11:12:13;101453.25;;;18.25;100.00
54882;BME280;40775;51.448;4.742;2023-05-01T11:20:10;101456.78;;;18.19;100.00
54882;BME280;40775;51.448;4.742;2023-05-01T11:22:39;101465.66;;;18.23;100.00
54882;BME280;40775;51.448;4.742;2023-05-01T11:25:20;101464.75;;;18.24;100.00
54882;BME280;40775;51.448;4.742;2023-05-01T11:27:49;101459.44;;;18.19;100.00
54882;BME280;40775;51.448;4.742;2023-05-01T11:30:16;101464.75;;;18.26;100.00
54882;BME280;40775;51.448;4.742;2023-05-01T11:32:45;101472.75;;;18.19;100.00
54882;BME280;40775;51.448;4.742;2023-05-01T11:37:47;101475.41;;;18.21;100.00
54882;BME280;40775;51.448;4.742;2023-05-01T11:42:49;101481.59;;;18.20;100.00
54882;BME280;40775;51.448;4.742;2023-05-01T11:45:18;101486.03;;;18.26;100.00
54882;BME280;40775;51.448;4.742;2023-05-01T11:47:45;101490.47;;;18.20;100.00
54882;BME280;40775;51.448;4.742;2023-05-01T11:50:13;101479.84;;;18.17;100.00
54882;BME280;40775;51.448;4.742;2023-05-01T11:52:44;101474.53;;;18.16;100.00
54882;BME280;40775;51.448;4.742;2023-05-01T11:55:12;101475.41;;;18.16;100.00
54882;BME280;40775;51.448;4.742;2023-05-01T11:57:51;101475.41;;;18.22;100.00
54882;BME280;40775;51.448;4.742;2023-05-01T12:00:35;101478.94;;;18.18;100.00
54882;BME280;40775;51.448;4.742;2023-05-01T12:03:13;101475.41;;;18.16;100.00
54882;BME280;40775;51.448;4.742;2023-05-01T12:05:42;101478.94;;;18.21;100.00
54882;BME280;40775;51.448;4.742;2023-05-01T12:10:38;101474.50;;;18.23;100.00
54882;BME280;40775;51.448;4.742;2023-05-01T12:13:06;101474.53;;;18.17;100.00
54882;BME280;40775;51.448;4.742;2023-05-01T12:15:35;101475.41;;;18.18;100.00
54882;BME280;40775;51.448;4.742;2023-05-01T12:18:04;101465.66;;;18.14;100.00
54882;BME280;40775;51.448;4.742;2023-05-01T12:20:45;101468.31;;;18.02;100.00
54882;BME280;40775;51.448;4.742;2023-05-01T12:23:28;101469.19;;;18.07;100.00
54882;BME280;40775;51.448;4.742;2023-05-01T12:25:56;101476.31;;;18.09;100.00
54882;BME280;40775;51.448;4.742;2023-05-01T12:28:23;101478.06;;;18.13;100.00
54882;BME280;40775;51.448;4.742;2023-05-01T12:30:50;101470.09;;;18.16;100.00
54882;BME280;40775;51.448;4.742;2023-05-01T12:33:18;101484.25;;;18.17;100.00
54882;BME280;40775;51.448;4.742;2023-05-01T12:35:47;101479.84;;;18.16;100.00
54882;BME280;40775;51.448;4.742;2023-05-01T12:38:19;101478.94;;;18.08;100.00
54882;BME280;40775;51.448;4.742;2023-05-01T12:40:53;101470.09;;;18.13;100.00
54882;BME280;40775;51.448;4.742;2023-05-01T12:43:31;101477.16;;;18.23;100.00
54882;BME280;40775;51.448;4.742;2023-05-01T12:45:58;101471.84;;;18.19;100.00
54882;BME280;40775;51.448;4.742;2023-05-01T12:48:25;101468.31;;;18.25;100.00
54882;BME280;40775;51.448;4.742;2023-05-01T12:50:53;101467.44;;;18.18;100.00
54882;BME280;40775;51.448;4.742;2023-05-01T12:53:21;101468.31;;;18.21;100.00
54882;BME280;40775;51.448;4.742;2023-05-01T12:55:50;101471.84;;;18.27;100.00
54882;BME280;40775;51.448;4.742;2023-05-01T12:58:18;101461.19;;;18.33;100.00
54882;BME280;40775;51.448;4.742;2023-05-01T13:03:24;101466.53;;;18.27;100.00
54882;BME280;40775;51.448;4.742;2023-05-01T13:05:59;101462.06;;;18.50;100.00
54882;BME280;40775;51.448;4.742;2023-05-01T13:08:35;101460.25;;;18.60;100.00
54882;BME280;40775;51.448;4.742;2023-05-01T13:11:11;101460.28;;;18.52;100.00
54882;BME280;40775;51.448;4.742;2023-05-01T13:13:39;101458.53;;;18.43;100.00
54882;BME280;40775;51.448;4.742;2023-05-01T13:16:09;101466.53;;;18.36;100.00
54882;BME280;40775;51.448;4.742;2023-05-01T13:18:48;101455.88;;;18.31;100.00
54882;BME280;40775;51.448;4.742;2023-05-01T13:21:18;101465.63;;;18.29;100.00
54882;BME280;40775;51.448;4.742;2023-05-01T13:23:59;101455.00;;;18.28;100.00
54882;BME280;40775;51.448;4.742;2023-05-01T13:26:33;101452.28;;;18.69;100.00
54882;BME280;40775;51.448;4.742;2023-05-01T13:29:02;101448.69;;;18.83;100.00
54882;BME280;40775;51.448;4.742;2023-05-01T13:31:31;101444.31;;;18.69;100.00
54882;BME280;40775;51.448;4.742;2023-05-01T13:33:58;101452.22;;;18.82;100.00
54882;BME280;40775;51.448;4.742;2023-05-01T13:36:29;101445.22;;;18.66;100.00
54882;BME280;40775;51.448;4.742;2023-05-01T13:38:57;101445.19;;;18.54;100.00
54882;BME280;40775;51.448;4.742;2023-05-01T13:41:25;101442.47;;;18.83;100.00
54882;BME280;40775;51.448;4.742;2023-05-01T13:43:54;101443.22;;;19.12;100.00
54882;BME280;40775;51.448;4.742;2023-05-01T13:46:23;101439.63;;;19.26;100.00
54882;BME280;40775;51.448;4.742;2023-05-01T13:48:50;101436.19;;;19.01;100.00
54882;BME280;40775;51.448;4.742;2023-05-01T13:51:26;101455.84;;;18.69;100.00
54882;BME280;40775;51.448;4.742;2023-05-01T13:53:54;101446.88;;;18.89;100.00